Time;durP1;ratioP1;P1;durP2;ratioP2;P2;SDS_P1;SDS_P2;PMS_P1;PMS_P2;Temp;Humidity;BMP_temperature;BMP_pressure;BME280_temperature;BME280_humidity;BME280_pressure;Samples;Min_cycle;Max_cycle;Signal;HPM_P1;HPM_P2
2022/04/23 00:01:20;;;;;;;5.65;4.32;;;12.10;99.90;;;;;;5093632;28;20531;-68
2022/04/23 00:03:46;;;;;;;6.88;5.00;;;11.90;99.90;;;;;;5075559;28;20048;-68
2022/04/23 00:06:12;;;;;;;6.68;4.80;;;11.90;99.90;;;;;;5093395;28;20055;-68
2022/04/23 00:08:38;;;;;;;7.55;4.80;;;11.90;99.90;;;;;;5093433;28;20484;-68
2022/04/23 00:11:03;;;;;;;6.07;4.88;;;11.90;99.90;;;;;;5093341;28;20496;-69
2022/04/23 00:13:29;;;;;;;8.75;4.97;;;11.80;99.90;;;;;;5075258;28;20472;-69
2022/04/23 00:15:55;;;;;;;7.38;5.55;;;11.90;99.90;;;;;;5093021;28;20126;-68
2022/04/23 00:18:20;;;;;;;7.68;5.03;;;11.70;99.90;;;;;;5093309;28;20074;-68
2022/04/23 00:20:46;;;;;;;9.25;5.72;;;11.70;99.90;;;;;;5093764;28;20075;-69
2022/04/23 00:23:12;;;;;;;9.82;5.75;;;11.90;99.90;;;;;;5093198;28;20089;-69
2022/04/23 00:25:39;;;;;;;6.10;5.10;;;11.60;99.90;;;;;;5093645;28;20051;-69
2022/04/23 00:28:05;;;;;;;7.97;5.53;;;11.60;99.90;;;;;;5093259;28;20059;-68
2022/04/23 00:30:32;;;;;;;6.35;5.53;;;11.50;99.90;;;;;;5092855;28;20144;-68
2022/04/23 00:33:00;;;;;;;11.32;6.03;;;11.50;99.90;;;;;;5093911;28;20464;-68
2022/04/23 00:35:26;;;;;;;8.00;5.80;;;11.50;99.90;;;;;;5078328;28;20123;-68
2022/04/23 00:37:52;;;;;;;10.25;6.68;;;11.50;99.90;;;;;;5096876;28;20050;-68
2022/04/23 00:40:20;;;;;;;8.82;5.80;;;11.60;99.90;;;;;;5096794;28;20048;-69
2022/04/23 00:42:51;;;;;;;8.40;5.90;;;11.40;99.90;;;;;;5079154;28;20040;-69
2022/04/23 00:45:17;;;;;;;8.82;6.53;;;11.60;99.90;;;;;;5096760;28;20127;-68
2022/04/23 00:47:43;;;;;;;8.02;5.85;;;11.40;99.90;;;;;;5096341;28;20040;-68
2022/04/23 00:50:09;;;;;;;9.50;6.55;;;11.40;99.90;;;;;;5097750;28;20040;-69
2022/04/23 00:52:36;;;;;;;13.10;6.00;;;11.30;99.90;;;;;;5096499;28;20040;-69
2022/04/23 00:55:03;;;;;;;7.63;6.47;;;11.30;99.90;;;;;;5097340;28;20055;-68
2022/04/23 00:57:29;;;;;;;9.30;6.20;;;11.30;99.90;;;;;;5096458;28;20079;-68
2022/04/23 00:59:56;;;;;;;9.93;6.07;;;11.30;99.90;;;;;;5097298;28;20098;-68
2022/04/23 01:02:22;;;;;;;11.88;7.15;;;11.30;99.90;;;;;;5096870;28;20047;-68
2022/04/23 01:04:48;;;;;;;8.63;6.63;;;11.20;99.90;;;;;;5096594;28;20044;-68
2022/04/23 01:07:14;;;;;;;8.13;6.18;;;11.20;99.90;;;;;;5096401;28;20567;-68
2022/04/23 01:09:44;;;;;;;8.52;6.22;;;11.20;99.90;;;;;;5078218;28;20487;-68
2022/04/23 01:12:11;;;;;;;10.45;6.47;;;11.40;99.90;;;;;;5096237;28;20096;-68
2022/04/23 01:15:05;;;;;;;11.90;6.82;;;11.10;99.90;;;;;;5078027;28;20052;-68
2022/04/23 01:17:31;;;;;;;9.02;6.18;;;11.40;99.90;;;;;;5078747;28;20052;-69
2022/04/23 01:19:57;;;;;;;9.40;6.75;;;11.10;99.90;;;;;;5096057;28;20104;-69
2022/04/23 01:22:24;;;;;;;11.32;7.13;;;11.00;99.90;;;;;;5077986;28;20091;-69
2022/04/23 01:24:55;;;;;;;7.78;6.20;;;11.00;99.90;;;;;;5095935;28;20036;-68
2022/04/23 01:27:25;;;;;;;8.68;6.95;;;11.00;99.90;;;;;;5095964;28;20052;-69
2022/04/23 01:29:51;;;;;;;9.02;6.03;;;10.90;99.90;;;;;;5077908;28;20060;-68
2022/04/23 01:32:16;;;;;;;10.75;6.95;;;11.20;99.90;;;;;;5095302;28;20513;-69
2022/04/23 01:34:42;;;;;;;9.60;6.90;;;10.90;99.90;;;;;;5096563;28;20127;-69
2022/04/23 01:37:08;;;;;;;8.60;7.00;;;11.20;99.90;;;;;;5061158;28;20101;-69
2022/04/23 01:39:34;;;;;;;10.90;7.40;;;10.80;99.90;;;;;;5077850;28;20074;-68
2022/04/23 01:42:00;;;;;;;9.85;7.80;;;11.50;99.90;;;;;;5095631;28;20044;-69
2022/04/23 01:44:26;;;;;;;8.00;6.13;;;10.80;99.90;;;;;;5095575;28;20119;-69
2022/04/23 01:46:51;;;;;;;9.00;6.60;;;10.80;99.90;;;;;;5094445;28;20075;-69
2022/04/23 01:49:17;;;;;;;8.68;6.68;;;10.70;99.90;;;;;;5095465;28;20040;-69
2022/04/23 01:51:43;;;;;;;12.00;7.43;;;11.10;99.90;;;;;;5095834;28;20138;-69
2022/04/23 01:54:08;;;;;;;11.30;7.50;;;10.70;99.90;;;;;;5095228;28;20039;-68
2022/04/23 01:56:34;;;;;;;10.32;7.00;;;11.00;99.90;;;;;;5043961;28;20127;-69
2022/04/23 01:59:00;;;;;;;11.82;7.90;;;10.90;99.90;;;;;;5095220;28;20040;-68
2022/04/23 02:01:26;;;;;;;9.68;7.22;;;10.60;99.90;;;;;;5095225;28;20518;-68
2022/04/23 02:03:51;;;;;;;9.63;7.40;;;10.60;99.90;;;;;;5060677;28;20101;-68
2022/04/23 02:06:17;;;;;;;9.80;6.88;;;10.60;99.90;;;;;;5077154;28;20062;-68
2022/04/23 02:08:43;;;;;;;10.25;7.15;;;10.90;99.90;;;;;;5077008;28;20058;-68
2022/04/23 02:11:09;;;;;;;9.98;7.43;;;10.80;99.90;;;;;;5095131;28;20040;-68
2022/04/23 02:13:34;;;;;;;10.60;7.80;;;10.90;99.90;;;;;;5095219;28;20041;-68
2022/04/23 02:16:04;;;;;;;12.35;7.95;;;10.50;99.90;;;;;;5094982;28;20388;-68
2022/04/23 02:18:30;;;;;;;9.70;7.30;;;10.60;99.90;;;;;;5094945;28;20060;-68
2022/04/23 02:20:56;;;;;;;10.25;7.40;;;10.70;99.90;;;;;;5077631;28;20141;-68
2022/04/23 02:23:23;;;;;;;10.05;7.00;;;10.50;99.90;;;;;;5095645;28;20459;-68
2022/04/23 02:25:49;;;;;;;10.60;7.45;;;10.40;99.90;;;;;;5094766;28;20055;-68
2022/04/23 02:28:14;;;;;;;10.75;7.72;;;10.60;99.90;;;;;;5095088;28;20043;-68
2022/04/23 02:30:40;;;;;;;10.63;7.07;;;10.30;99.90;;;;;;5094543;28;20060;-68
2022/04/23 02:33:06;;;;;;;9.82;6.97;;;10.60;99.90;;;;;;5076919;28;20080;-69
2022/04/23 02:35:34;;;;;;;9.88;7.30;;;10.30;99.90;;;;;;5094713;28;20472;-68
2022/04/23 02:38:01;;;;;;;10.57;7.32;;;10.30;99.90;;;;;;5094695;28;20083;-68
2022/04/23 02:40:28;;;;;;;11.70;7.65;;;10.60;99.90;;;;;;5094672;28;20113;-68
2022/04/23 02:42:55;;;;;;;11.32;7.35;;;10.30;99.90;;;;;;5076577;28;20044;-68
2022/04/23 02:45:20;;;;;;;11.07;7.85;;;10.30;99.90;;;;;;5094996;28;20048;-68
2022/04/23 02:47:50;;;;;;;12.50;7.28;;;10.50;99.90;;;;;;5094355;28;20052;-68
2022/04/23 02:50:30;;;;;;;11.48;7.47;;;10.50;99.90;;;;;;5094389;28;20054;-68
2022/04/23 02:52:57;;;;;;;9.80;6.95;;;10.30;99.90;;;;;;5077084;28;20079;-68
2022/04/23 02:55:24;;;;;;;10.20;7.47;;;10.20;99.90;;;;;;5076292;28;20059;-68
2022/04/23 02:57:50;;;;;;;14.05;7.15;;;10.40;99.90;;;;;;5094117;28;20055;-68
2022/04/23 03:00:16;;;;;;;9.18;7.30;;;10.20;99.90;;;;;;5076262;28;20085;-68
2022/04/23 03:02:44;;;;;;;9.90;6.90;;;10.30;99.90;;;;;;5094385;28;20083;-68
2022/04/23 03:05:11;;;;;;;10.50;7.28;;;10.10;99.90;;;;;;5094129;28;20036;-68
2022/04/23 03:07:38;;;;;;;10.50;6.57;;;10.10;99.90;;;;;;5075996;28;20091;-68
2022/04/23 03:10:09;;;;;;;9.18;6.28;;;10.20;99.90;;;;;;5075975;28;20052;-68
2022/04/23 03:12:38;;;;;;;9.73;7.03;;;10.10;99.90;;;;;;5076382;28;20392;-68
2022/04/23 03:15:18;;;;;;;9.48;6.65;;;10.20;99.90;;;;;;5076546;28;20133;-68
2022/04/23 03:17:45;;;;;;;10.30;7.45;;;10.10;99.90;;;;;;5093980;28;20063;-68
2022/04/23 03:20:12;;;;;;;8.68;6.75;;;10.20;99.90;;;;;;5093997;28;20052;-68
2022/04/23 03:22:39;;;;;;;9.63;6.97;;;10.10;99.90;;;;;;5093888;28;20142;-68
2022/04/23 03:25:06;;;;;;;10.98;7.32;;;10.10;99.90;;;;;;5043181;28;20065;-68
2022/04/23 03:27:32;;;;;;;8.55;6.68;;;10.10;99.90;;;;;;5059182;28;20430;-68
2022/04/23 03:30:02;;;;;;;11.27;7.10;;;10.20;99.90;;;;;;5093653;28;20059;-68
2022/04/23 03:32:28;;;;;;;8.88;7.25;;;10.00;99.90;;;;;;5093633;28;20495;-68
2022/04/23 03:34:54;;;;;;;7.93;6.90;;;10.00;99.90;;;;;;5093662;28;20036;-68
2022/04/23 03:37:21;;;;;;;8.65;7.50;;;10.10;99.90;;;;;;5093667;28;20044;-68
2022/04/23 03:39:47;;;;;;;9.23;6.82;;;10.00;99.90;;;;;;5093620;28;20055;-68
2022/04/23 03:42:13;;;;;;;10.43;7.55;;;10.30;99.90;;;;;;5093614;28;20044;-68
2022/04/23 03:44:38;;;;;;;7.95;7.15;;;10.00;99.90;;;;;;5093655;28;20040;-68
2022/04/23 03:47:04;;;;;;;8.90;6.70;;;10.30;99.90;;;;;;5076311;28;20106;-68
2022/04/23 03:49:30;;;;;;;10.25;6.78;;;10.00;99.90;;;;;;5093556;28;20196;-68
2022/04/23 03:51:57;;;;;;;12.95;7.43;;;10.00;99.90;;;;;;5094340;28;20044;-69
2022/04/23 03:54:23;;;;;;;8.60;7.22;;;10.20;99.90;;;;;;5093146;28;20625;-68
2022/04/23 03:56:49;;;;;;;8.80;6.85;;;10.20;99.90;;;;;;5093424;28;20055;-68
2022/04/23 03:59:20;;;;;;;11.13;7.40;;;9.90;99.90;;;;;;5093125;28;20048;-68
2022/04/23 04:01:47;;;;;;;10.20;7.10;;;9.90;99.90;;;;;;5075375;28;20044;-67
2022/04/23 04:04:14;;;;;;;8.77;7.35;;;9.80;99.90;;;;;;5076026;28;20096;-68
2022/04/23 04:06:40;;;;;;;9.00;6.88;;;9.80;99.90;;;;;;5094213;28;20109;-68
2022/04/23 04:09:06;;;;;;;8.73;7.53;;;9.80;99.90;;;;;;5075878;28;20080;-68
2022/04/23 04:12:01;;;;;;;8.93;7.43;;;9.80;99.90;;;;;;5097503;28;20071;-68
2022/04/23 04:14:17;;;;;;;9.32;7.05;;;10.00;99.90;;;;;;5097438;28;20059;-68
2022/04/23 04:16:45;;;;;;;8.57;7.32;;;10.00;99.90;;;;;;5097803;28;20048;-68
2022/04/23 04:19:14;;;;;;;9.60;7.60;;;9.80;99.90;;;;;;5097296;28;20048;-68
2022/04/23 04:21:43;;;;;;;9.82;7.38;;;9.70;99.90;;;;;;5079269;28;20357;-68
2022/04/23 04:24:13;;;;;;;11.65;7.45;;;9.70;99.90;;;;;;5080059;28;20044;-68
2022/04/23 04:26:40;;;;;;;11.15;7.47;;;9.70;99.90;;;;;;5079646;28;20102;-68
2022/04/23 04:29:06;;;;;;;9.27;7.88;;;9.60;99.90;;;;;;5097057;28;20109;-68
2022/04/23 04:31:47;;;;;;;9.32;7.60;;;9.60;99.90;;;;;;5078823;28;20063;-68
2022/04/23 04:34:23;;;;;;;9.73;7.22;;;9.90;99.90;;;;;;5078746;28;20044;-68
2022/04/23 04:36:50;;;;;;;11.25;7.38;;;9.60;99.90;;;;;;5096941;28;20044;-69
2022/04/23 04:39:17;;;;;;;9.95;7.47;;;9.60;99.90;;;;;;5096885;28;20048;-68
2022/04/23 04:41:44;;;;;;;9.77;8.02;;;9.90;99.90;;;;;;5096747;28;20054;-69
2022/04/23 04:44:10;;;;;;;10.73;7.45;;;9.90;99.90;;;;;;5078862;28;20499;-69
2022/04/23 04:46:36;;;;;;;8.82;6.22;;;10.10;99.90;;;;;;5096726;28;20059;-69
2022/04/23 04:49:03;;;;;;;9.30;7.43;;;9.90;99.90;;;;;;5079424;28;20044;-68
2022/04/23 04:51:29;;;;;;;9.95;7.38;;;9.50;99.90;;;;;;5096581;28;20043;-69
2022/04/23 04:53:56;;;;;;;8.00;6.43;;;9.50;99.90;;;;;;5097344;28;20043;-68
2022/04/23 04:56:22;;;;;;;11.30;7.20;;;9.90;99.90;;;;;;5096566;28;20056;-68
2022/04/23 04:58:48;;;;;;;10.05;7.70;;;9.60;99.90;;;;;;5078477;28;20048;-69
2022/04/23 05:01:15;;;;;;;11.20;7.15;;;10.00;99.90;;;;;;5096338;28;20148;-68
2022/04/23 05:03:41;;;;;;;8.40;6.55;;;9.40;99.90;;;;;;5097223;28;20123;-68
2022/04/23 05:06:07;;;;;;;8.05;6.70;;;9.50;99.90;;;;;;5096364;28;20456;-68
2022/04/23 05:08:36;;;;;;;8.10;6.30;;;9.50;99.90;;;;;;5078322;28;20043;-68
2022/04/23 05:11:02;;;;;;;8.00;6.72;;;9.50;99.90;;;;;;5096304;28;20054;-68
2022/04/23 05:13:28;;;;;;;10.65;7.57;;;9.50;99.90;;;;;;5078033;28;20087;-68
2022/04/23 05:15:55;;;;;;;7.40;6.55;;;9.50;99.90;;;;;;5096184;28;20076;-68
2022/04/23 05:18:20;;;;;;;8.65;6.50;;;9.50;99.90;;;;;;5095846;28;20079;-68
2022/04/23 05:20:46;;;;;;;8.90;7.13;;;9.50;99.90;;;;;;5095961;28;20071;-68
2022/04/23 05:23:12;;;;;;;7.30;6.18;;;9.70;99.90;;;;;;5096060;28;20048;-68
2022/04/23 05:25:38;;;;;;;9.63;7.13;;;9.60;99.90;;;;;;5096019;28;20467;-68
2022/04/23 05:28:04;;;;;;;9.20;7.05;;;9.60;99.90;;;;;;5078122;28;20091;-68
2022/04/23 05:30:31;;;;;;;7.22;6.38;;;9.50;99.90;;;;;;5078667;28;20084;-68
2022/04/23 05:32:56;;;;;;;7.72;6.30;;;9.70;99.90;;;;;;5077612;28;20086;-68
2022/04/23 05:35:22;;;;;;;7.90;6.65;;;9.50;99.90;;;;;;5095802;28;20079;-68
2022/04/23 05:37:48;;;;;;;8.30;6.72;;;9.50;99.90;;;;;;5044378;28;20392;-68
2022/04/23 05:40:13;;;;;;;8.50;6.93;;;9.70;99.90;;;;;;5078621;28;20127;-68
2022/04/23 05:42:39;;;;;;;8.25;6.22;;;9.60;99.90;;;;;;5077626;28;20051;-68
2022/04/23 05:45:05;;;;;;;9.48;6.43;;;9.60;99.90;;;;;;5077573;28;20500;-68
2022/04/23 05:47:31;;;;;;;7.93;6.05;;;9.60;99.90;;;;;;5096383;28;20047;-68
2022/04/23 05:49:57;;;;;;;7.63;6.68;;;9.60;99.90;;;;;;5095512;28;20450;-68
2022/04/23 05:52:22;;;;;;;8.68;6.70;;;9.60;99.90;;;;;;5077359;28;20499;-68
2022/04/23 05:54:48;;;;;;;8.73;6.60;;;9.80;99.90;;;;;;5061122;28;20051;-68
2022/04/23 05:57:15;;;;;;;7.32;6.00;;;9.90;99.90;;;;;;5095342;28;20044;-68
2022/04/23 05:59:41;;;;;;;7.97;6.78;;;9.90;99.90;;;;;;5095541;28;20585;-68
2022/04/23 06:02:08;;;;;;;7.82;6.28;;;9.70;99.90;;;;;;5077993;28;20036;-68
2022/04/23 06:04:33;;;;;;;10.15;7.65;;;9.70;99.90;;;;;;5060353;28;20496;-67
2022/04/23 06:06:59;;;;;;;9.43;7.00;;;9.80;99.90;;;;;;5095153;28;20040;-68
2022/04/23 06:09:25;;;;;;;8.35;7.22;;;10.10;99.90;;;;;;5078127;28;20459;-68
2022/04/23 06:11:50;;;;;;;9.55;7.57;;;9.80;99.90;;;;;;5095126;28;20044;-69
2022/04/23 06:14:16;;;;;;;9.05;7.78;;;9.80;99.90;;;;;;5094975;28;20036;-68
2022/04/23 06:16:42;;;;;;;9.60;7.68;;;9.80;99.90;;;;;;5094974;28;20085;-67
2022/04/23 06:19:08;;;;;;;8.57;7.38;;;9.90;99.90;;;;;;5095281;28;20104;-68
2022/04/23 06:21:33;;;;;;;12.23;6.78;;;10.30;99.90;;;;;;5077130;28;20472;-68
2022/04/23 06:23:59;;;;;;;8.13;6.68;;;9.90;99.90;;;;;;5094805;28;20036;-67
2022/04/23 06:26:25;;;;;;;9.82;7.40;;;10.10;99.90;;;;;;5094838;28;20044;-69
2022/04/23 06:28:51;;;;;;;8.52;6.60;;;10.10;99.90;;;;;;5077758;28;20040;-67
2022/04/23 06:31:17;;;;;;;9.15;7.20;;;10.10;99.90;;;;;;5094621;28;20522;-67
2022/04/23 06:33:43;;;;;;;8.85;6.80;;;10.20;99.90;;;;;;5076071;28;20095;-68
2022/04/23 06:36:13;;;;;;;10.05;7.03;;;10.20;99.90;;;;;;5094648;28;20090;-68
2022/04/23 06:38:39;;;;;;;9.48;7.50;;;10.20;99.90;;;;;;5094696;28;20043;-68
2022/04/23 06:41:05;;;;;;;10.23;7.30;;;10.20;99.90;;;;;;5094570;28;20103;-68
2022/04/23 06:43:31;;;;;;;7.47;6.75;;;10.30;99.90;;;;;;5077001;28;20051;-68
2022/04/23 06:45:57;;;;;;;8.70;7.07;;;10.30;99.90;;;;;;5094690;28;20047;-67
2022/04/23 06:48:23;;;;;;;9.35;7.50;;;10.60;99.90;;;;;;5094920;28;20043;-69
2022/04/23 06:50:48;;;;;;;9.52;8.07;;;10.60;99.90;;;;;;5094372;28;20229;-67
2022/04/23 06:53:14;;;;;;;8.63;7.32;;;10.50;99.90;;;;;;5093994;28;20044;-68
2022/04/23 06:55:40;;;;;;;10.38;7.53;;;10.50;99.90;;;;;;5077307;28;20051;-68
2022/04/23 06:58:06;;;;;;;8.18;6.93;;;10.60;99.90;;;;;;5094314;28;20171;-68
2022/04/23 07:00:32;;;;;;;9.00;7.50;;;10.60;99.90;;;;;;5076228;28;20082;-68
2022/04/23 07:02:57;;;;;;;7.97;7.13;;;10.50;99.90;;;;;;5060480;28;20056;-67
2022/04/23 07:05:23;;;;;;;7.93;7.05;;;10.70;99.90;;;;;;5076002;28;20108;-67
2022/04/23 07:07:59;;;;;;;8.07;6.80;;;10.80;99.90;;;;;;5094421;28;20040;-68
2022/04/23 07:10:26;;;;;;;10.60;7.32;;;10.80;99.90;;;;;;5093824;28;20411;-68
2022/04/23 07:12:53;;;;;;;10.15;7.40;;;10.80;99.90;;;;;;5093909;28;20044;-66
2022/04/23 07:15:20;;;;;;;8.23;6.80;;;11.00;99.90;;;;;;5094748;28;20384;-66
2022/04/23 07:17:50;;;;;;;10.63;7.50;;;10.80;99.90;;;;;;5076101;28;20055;-66
2022/04/23 07:20:17;;;;;;;8.85;7.13;;;10.90;99.90;;;;;;5075584;28;20495;-67
2022/04/23 07:25:35;;;;;;;9.57;7.65;;;11.40;99.90;;;;;;5094785;28;20508;-67
2022/04/23 07:28:01;;;;;;;8.88;7.30;;;11.40;99.90;;;;;;5076497;28;20048;-67
2022/04/23 07:30:27;;;;;;;8.13;7.28;;;11.20;99.90;;;;;;5075741;28;20044;-67
2022/04/23 07:32:54;;;;;;;12.85;7.43;;;11.30;99.90;;;;;;5075553;28;20047;-67
2022/04/23 07:38:22;;;;;;;10.10;7.25;;;11.30;99.90;;;;;;5076296;28;20135;-66
2022/04/23 07:40:50;;;;;;;7.35;6.47;;;11.40;99.90;;;;;;5093822;28;20549;-66
2022/04/23 07:43:16;;;;;;;10.32;7.82;;;11.40;99.90;;;;;;5075713;28;20392;-66
2022/04/23 07:45:43;;;;;;;8.88;6.97;;;12.00;99.90;;;;;;5079073;28;20417;-66
2022/04/23 07:48:11;;;;;;;8.30;7.45;;;11.50;99.90;;;;;;5097946;28;20039;-67
2022/04/23 07:50:38;;;;;;;8.00;7.20;;;11.60;99.90;;;;;;5097913;28;20048;-66
2022/04/23 07:53:04;;;;;;;8.30;7.43;;;11.60;99.90;;;;;;5097815;28;20083;-66
2022/04/23 07:55:37;;;;;;;8.52;7.03;;;11.70;99.90;;;;;;5098702;28;20052;-67
2022/04/23 07:58:09;;;;;;;9.77;8.23;;;11.80;99.90;;;;;;5097904;28;20059;-66
2022/04/23 08:00:35;;;;;;;10.10;7.05;;;11.80;99.90;;;;;;5098378;28;20411;-66
2022/04/23 08:03:03;;;;;;;8.90;7.68;;;11.90;99.90;;;;;;5079528;28;20050;-66
2022/04/23 08:05:32;;;;;;;9.30;7.55;;;12.00;99.90;;;;;;5097662;28;20086;-66
2022/04/23 08:07:59;;;;;;;9.05;7.50;;;12.00;99.90;;;;;;5097627;28;20067;-66
2022/04/23 08:10:25;;;;;;;8.38;7.40;;;12.10;99.90;;;;;;5079480;28;20527;-66
2022/04/23 08:12:51;;;;;;;8.20;7.40;;;12.20;99.90;;;;;;5079600;28;20476;-66
2022/04/23 08:15:17;;;;;;;11.05;7.88;;;12.40;99.90;;;;;;5097460;28;20047;-66
2022/04/23 08:17:43;;;;;;;7.93;6.97;;;12.20;99.90;;;;;;5097468;28;20040;-67
2022/04/23 08:20:10;;;;;;;9.02;8.07;;;12.30;99.90;;;;;;5062668;28;20056;-67
2022/04/23 08:22:36;;;;;;;8.38;7.30;;;12.40;99.90;;;;;;5080023;28;20380;-66
2022/04/23 08:25:02;;;;;;;9.15;8.25;;;12.40;99.90;;;;;;5080174;28;20044;-67
2022/04/23 08:27:28;;;;;;;9.02;8.00;;;12.50;99.90;;;;;;5079486;28;20537;-67
2022/04/23 08:32:39;;;;;;;9.48;8.38;;;12.60;99.90;;;;;;5082262;28;20102;-66
2022/04/23 08:35:05;;;;;;;12.25;7.70;;;12.60;99.90;;;;;;5062332;28;20414;-67
2022/04/23 08:37:34;;;;;;;9.88;7.95;;;12.70;99.90;;;;;;5097324;28;20118;-67
2022/04/23 08:40:00;;;;;;;9.23;8.27;;;12.70;99.90;;;;;;5079153;28;20129;-66
2022/04/23 08:42:26;;;;;;;10.13;8.63;;;12.70;99.90;;;;;;5079166;28;20376;-67
2022/04/23 08:44:53;;;;;;;8.85;7.78;;;12.70;99.90;;;;;;5096942;28;20043;-66
2022/04/23 08:47:24;;;;;;;8.45;7.32;;;12.80;99.90;;;;;;5063156;28;20060;-67
2022/04/23 08:49:54;;;;;;;10.75;8.35;;;12.90;99.90;;;;;;5078833;28;20047;-66
2022/04/23 08:52:31;;;;;;;9.27;8.30;;;12.90;99.90;;;;;;5062649;28;20051;-67
2022/04/23 08:54:59;;;;;;;9.38;7.80;;;13.00;99.90;;;;;;5096264;28;20087;-66
2022/04/23 08:57:26;;;;;;;10.88;8.60;;;13.10;99.90;;;;;;5097218;28;20113;-67
2022/04/23 08:59:56;;;;;;;9.95;8.15;;;13.10;99.90;;;;;;5097154;28;20055;-66
2022/04/23 09:02:22;;;;;;;9.68;7.57;;;13.20;99.90;;;;;;5079070;28;20055;-67
2022/04/23 09:04:48;;;;;;;8.38;7.55;;;13.20;99.90;;;;;;5079012;28;20036;-67
2022/04/23 09:07:19;;;;;;;8.85;7.95;;;13.20;99.50;;;;;;5097057;28;20393;-67
2022/04/23 09:09:49;;;;;;;10.05;8.30;;;13.30;99.60;;;;;;5096444;28;20054;-66
2022/04/23 09:12:17;;;;;;;7.60;6.60;;;13.30;99.20;;;;;;5096336;28;20408;-66
2022/04/23 09:14:44;;;;;;;11.10;7.32;;;13.30;99.10;;;;;;5096282;28;20055;-66
2022/04/23 09:25:35;;;;;;;7.82;6.97;;;13.50;97.00;;;;;;5096726;28;20056;-65
2022/04/23 09:28:17;;;;;;;8.85;7.40;;;13.60;96.70;;;;;;5096367;28;20106;-65
2022/04/23 09:30:44;;;;;;;7.97;6.65;;;13.60;95.90;;;;;;5041130;28;20111;-66
2022/04/23 09:33:10;;;;;;;7.88;7.10;;;13.70;96.10;;;;;;5074910;28;20384;-66
2022/04/23 09:35:51;;;;;;;8.52;7.00;;;13.70;96.20;;;;;;5057532;28;20044;-66
2022/04/23 09:38:18;;;;;;;9.07;8.18;;;13.80;96.10;;;;;;5074649;28;20097;-65
2022/04/23 09:41:16;;;;;;;8.43;7.10;;;13.90;96.20;;;;;;5073722;28;20056;-65
2022/04/23 09:44:05;;;;;;;8.18;7.20;;;13.90;95.90;;;;;;5074901;28;20044;-66
2022/04/23 09:46:44;;;;;;;6.80;6.10;;;14.00;94.70;;;;;;5074383;28;20085;-67
2022/04/23 09:49:10;;;;;;;7.85;7.00;;;14.10;92.90;;;;;;5075014;28;20051;-66
2022/04/23 09:51:35;;;;;;;8.68;7.47;;;14.10;92.60;;;;;;5074891;28;20040;-67
2022/04/23 09:54:02;;;;;;;9.55;7.05;;;14.10;92.50;;;;;;5074300;28;20037;-70
2022/04/23 09:56:28;;;;;;;7.25;6.43;;;14.10;92.20;;;;;;5073581;28;20048;-67
2022/04/23 09:58:55;;;;;;;8.05;6.35;;;14.40;91.80;;;;;;5074811;28;20051;-66
2022/04/23 10:01:22;;;;;;;7.47;6.60;;;14.10;91.70;;;;;;5074433;28;20511;-66
2022/04/23 10:03:54;;;;;;;8.57;7.13;;;14.30;91.70;;;;;;5074474;28;20044;-67
2022/04/23 10:06:22;;;;;;;7.77;6.27;;;14.20;91.70;;;;;;5074174;28;20044;-66
2022/04/23 10:08:51;;;;;;;9.38;6.57;;;14.30;90.40;;;;;;5073330;28;20053;-67
2022/04/23 10:11:23;;;;;;;7.53;6.50;;;14.40;90.60;;;;;;5074170;28;20075;-67
2022/04/23 10:13:56;;;;;;;8.43;6.55;;;14.40;90.20;;;;;;5073847;28;20041;-68
2022/04/23 10:16:23;;;;;;;7.80;6.95;;;14.50;88.50;;;;;;5073230;28;20040;-67
2022/04/23 10:18:49;;;;;;;6.82;6.13;;;14.50;87.80;;;;;;5073535;28;20135;-67
2022/04/23 10:21:40;;;;;;;7.38;6.65;;;14.50;87.90;;;;;;5074191;28;20443;-68
2022/04/23 10:25:02;;;;;;;6.78;5.70;;;14.50;88.40;;;;;;5074402;28;20048;-67
2022/04/23 10:27:28;;;;;;;7.00;5.80;;;14.60;88.30;;;;;;5011906;28;20486;-68
2022/04/23 10:29:56;;;;;;;9.57;6.43;;;14.70;88.70;;;;;;4995327;28;20050;-67
2022/04/23 10:32:24;;;;;;;6.95;5.93;;;14.70;88.50;;;;;;5031213;28;20053;-67
2022/04/23 10:34:50;;;;;;;6.90;6.20;;;14.80;87.70;;;;;;5036138;28;20488;-68
2022/04/23 10:37:24;;;;;;;8.68;6.70;;;14.90;86.60;;;;;;5053288;28;20051;-67
2022/04/23 10:39:53;;;;;;;7.97;5.93;;;14.90;85.80;;;;;;5054328;28;20088;-68
2022/04/23 10:42:21;;;;;;;7.13;6.43;;;14.90;86.60;;;;;;5052241;28;20090;-66
2022/04/23 10:44:48;;;;;;;6.60;6.00;;;15.00;86.20;;;;;;5053338;28;20048;-67
2022/04/23 10:47:28;;;;;;;6.95;5.40;;;15.00;84.90;;;;;;5056312;28;20055;-66
2022/04/23 10:50:16;;;;;;;7.35;5.68;;;15.00;83.40;;;;;;5054978;28;20053;-67
2022/04/23 10:52:42;;;;;;;7.82;5.88;;;15.00;82.40;;;;;;5053319;28;20554;-67
2022/04/23 10:55:10;;;;;;;7.35;5.25;;;15.10;80.60;;;;;;5053411;28;20099;-68
2022/04/23 10:57:38;;;;;;;7.03;5.90;;;15.10;81.00;;;;;;5053452;28;20057;-67
2022/04/23 11:00:12;;;;;;;9.13;5.90;;;15.10;81.70;;;;;;5034997;28;20132;-66
2022/04/23 11:02:39;;;;;;;6.80;6.10;;;15.10;80.60;;;;;;5052504;28;20555;-67
2022/04/23 11:13:38;;;;;;;7.03;5.90;;;15.30;79.50;;;;;;5053265;28;20045;-66
2022/04/23 11:16:08;;;;;;;5.90;5.30;;;15.40;79.00;;;;;;5052690;28;20067;-67
2022/04/23 11:18:35;;;;;;;6.20;5.30;;;15.40;79.30;;;;;;5052750;28;20084;-67
2022/04/23 11:21:16;;;;;;;6.75;5.50;;;15.40;79.10;;;;;;5053136;28;20045;-67
2022/04/23 11:23:47;;;;;;;6.13;4.45;;;15.50;77.90;;;;;;5052867;28;20041;-67
2022/04/23 11:26:22;;;;;;;6.65;4.65;;;15.50;77.50;;;;;;5053422;28;20053;-67
2022/04/23 11:28:57;;;;;;;6.57;4.90;;;15.50;75.50;;;;;;5052621;28;20080;-67
2022/04/23 11:31:24;;;;;;;6.20;5.35;;;15.60;76.20;;;;;;5073646;28;20164;-67
2022/04/23 11:33:55;;;;;;;7.20;5.35;;;15.60;77.30;;;;;;5093196;28;20048;-71
2022/04/23 11:36:37;;;;;;;6.50;5.30;;;15.60;76.20;;;;;;5094461;28;20047;-70
2022/04/23 11:39:08;;;;;;;5.30;4.80;;;15.70;75.60;;;;;;5093991;28;20133;-71
2022/04/23 11:41:36;;;;;;;5.88;5.28;;;15.70;75.30;;;;;;5093797;28;20062;-67
2022/04/23 11:47:10;;;;;;;6.72;5.50;;;15.70;73.60;;;;;;5093836;28;20059;-67
2022/04/23 11:49:36;;;;;;;7.53;5.82;;;15.80;74.10;;;;;;5075826;28;20058;-69
2022/04/23 11:52:11;;;;;;;5.72;4.78;;;15.80;72.60;;;;;;5076274;28;20044;-68
2022/04/23 11:54:42;;;;;;;5.28;4.78;;;15.80;71.80;;;;;;5093682;28;20044;-68
2022/04/23 11:57:16;;;;;;;4.80;4.30;;;15.80;73.20;;;;;;5094517;28;20050;-68
2022/04/23 11:59:44;;;;;;;5.10;4.45;;;15.80;73.80;;;;;;5094337;28;20376;-67
2022/04/23 12:02:26;;;;;;;4.57;3.97;;;15.90;73.40;;;;;;5093523;28;20055;-66
2022/04/23 12:04:53;;;;;;;4.95;4.45;;;16.00;72.20;;;;;;5077921;28;20424;-68
2022/04/23 12:07:23;;;;;;;6.25;4.47;;;16.00;73.30;;;;;;5093536;28;20472;-67
2022/04/23 12:09:56;;;;;;;4.35;3.95;;;16.10;71.60;;;;;;5093522;28;20048;-68
2022/04/23 12:12:27;;;;;;;5.18;4.18;;;16.10;71.90;;;;;;5093458;28;20109;-67
2022/04/23 12:15:00;;;;;;;4.95;3.90;;;16.10;71.40;;;;;;5093147;28;20087;-67
2022/04/23 12:17:27;;;;;;;4.32;3.92;;;16.20;70.50;;;;;;5093510;28;20056;-68
2022/04/23 12:19:54;;;;;;;4.40;3.70;;;16.20;69.70;;;;;;5093489;28;20215;-66
2022/04/23 12:22:26;;;;;;;4.20;3.80;;;16.40;70.10;;;;;;5094281;28;20071;-67
2022/04/23 12:25:09;;;;;;;5.63;3.38;;;16.30;70.30;;;;;;5093980;28;20079;-67
2022/04/23 12:42:21;;;;;;;4.55;3.55;;;16.60;69.70;;;;;;5097565;28;20095;-66
2022/04/23 12:44:47;;;;;;;4.18;3.40;;;16.60;68.70;;;;;;5079021;28;20051;-67
2022/04/23 12:47:17;;;;;;;4.38;3.78;;;16.70;67.00;;;;;;5096809;28;20541;-66
2022/04/23 12:49:56;;;;;;;4.13;3.72;;;16.70;67.20;;;;;;5062245;28;20102;-67
2022/04/23 12:52:25;;;;;;;3.88;3.00;;;16.70;66.00;;;;;;5096822;28;20079;-67
2022/04/23 12:55:17;;;;;;;4.35;3.30;;;16.70;65.70;;;;;;5096648;28;20040;-67
2022/04/23 12:57:45;;;;;;;4.13;3.53;;;16.70;66.00;;;;;;5096934;28;20133;-67
2022/04/23 13:00:14;;;;;;;4.40;3.70;;;16.70;65.60;;;;;;5096620;28;20048;-67
2022/04/23 13:02:40;;;;;;;3.33;3.03;;;16.70;65.30;;;;;;5079485;28;20378;-68
2022/04/23 13:05:08;;;;;;;4.68;3.67;;;16.70;65.00;;;;;;5096557;28;20144;-66
2022/04/23 13:10:19;;;;;;;5.38;3.15;;;16.80;64.70;;;;;;5097039;28;20044;-67
2022/04/23 13:12:45;;;;;;;3.30;3.00;;;16.90;64.90;;;;;;5096299;28;20044;-68
2022/04/23 13:15:15;;;;;;;3.22;2.83;;;16.90;64.60;;;;;;5078540;28;20506;-68
2022/04/23 13:17:42;;;;;;;4.47;2.40;;;17.00;62.80;;;;;;5096355;28;20531;-66
2022/04/23 13:20:09;;;;;;;3.10;2.80;;;17.00;62.90;;;;;;5078450;28;20123;-67
2022/04/23 13:22:36;;;;;;;3.13;2.83;;;17.00;62.90;;;;;;5078996;28;20040;-67
2022/04/23 13:25:06;;;;;;;3.22;2.90;;;17.10;63.10;;;;;;5096096;28;20051;-67
2022/04/23 13:27:32;;;;;;;3.95;2.45;;;17.10;62.70;;;;;;5078020;28;20090;-68
2022/04/23 13:29:58;;;;;;;4.05;3.10;;;17.20;62.90;;;;;;5096670;28;20101;-67
2022/04/23 13:32:24;;;;;;;3.60;2.88;;;17.20;62.80;;;;;;5096020;28;20103;-67
2022/04/23 13:34:50;;;;;;;4.93;2.35;;;17.20;62.90;;;;;;5096425;28;20079;-66
2022/04/23 13:37:17;;;;;;;3.60;2.63;;;17.20;62.80;;;;;;5096773;28;20058;-67